Time;durP1;ratioP1;P1;durP2;ratioP2;P2;SDS_P1;SDS_P2;PMS_P1;PMS_P2;Temp;Humidity;BMP_temperature;BMP_pressure;BME280_temperature;BME280_humidity;BME280_pressure;Samples;Min_cycle;Max_cycle;Signal;HPM_P1;HPM_P2
2021/02/04 00:00:22;;;;;;;1.5;0.8;;;;;;;;;;;;;
2021/02/04 00:02:48;;;;;;;0.5;0.5;;;;;;;;;;;;;
2021/02/04 00:05:13;;;;;;;0.7;0.7;;;;;;;;;;;;;
2021/02/04 00:07:38;;;;;;;0.9;0.6;;;;;;;;;;;;;
2021/02/04 00:10:03;;;;;;;4.3;1.2;;;;;;;;;;;;;
2021/02/04 00:12:30;;;;;;;1.2;1;;;;;;;;;;;;;
2021/02/04 00:14:58;;;;;;;2;1.1;;;;;;;;;;;;;
2021/02/04 00:17:25;;;;;;;3;1.4;;;;;;;;;;;;;
2021/02/04 00:19:53;;;;;;;1.4;1.2;;;;;;;;;;;;;
2021/02/04 00:22:18;;;;;;;4;0.8;;;;;;;;;;;;;
2021/02/04 00:24:47;;;;;;;3.2;0.8;;;;;;;;;;;;;
2021/02/04 00:27:10;;;;;;;1.3;0.9;;;;;;;;;;;;;
2021/02/04 00:29:37;;;;;;;0.8;0.7;;;;;;;;;;;;;
2021/02/04 00:32:02;;;;;;;1.8;1;;;;;;;;;;;;;
2021/02/04 00:34:28;;;;;;;0.9;0.8;;;;;;;;;;;;;
2021/02/04 00:36:53;;;;;;;1;0.5;;;;;;;;;;;;;
2021/02/04 00:39:18;;;;;;;0.6;0.5;;;;;;;;;;;;;
2021/02/04 00:41:43;;;;;;;5;0.5;;;;;;;;;;;;;
2021/02/04 00:44:08;;;;;;;0.6;0.4;;;;;;;;;;;;;
2021/02/04 00:46:34;;;;;;;0.9;0.3;;;;;;;;;;;;;
2021/02/04 00:48:59;;;;;;;0.5;0.4;;;;;;;;;;;;;
2021/02/04 00:51:25;;;;;;;0.4;0.4;;;;;;;;;;;;;
2021/02/04 00:53:50;;;;;;;0.4;0.4;;;;;;;;;;;;;
2021/02/04 00:56:16;;;;;;;0.3;0.3;;;;;;;;;;;;;
2021/02/04 00:58:41;;;;;;;0.2;0.2;;;;;;;;;;;;;
2021/02/04 01:01:08;;;;;;;0.4;0.4;;;;;;;;;;;;;
2021/02/04 01:03:33;;;;;;;0.7;0.2;;;;;;;;;;;;;
2021/02/04 01:05:59;;;;;;;0.5;0.3;;;;;;;;;;;;;
2021/02/04 01:08:23;;;;;;;0.4;0.3;;;;;;;;;;;;;
2021/02/04 01:10:52;;;;;;;0.7;0.3;;;;;;;;;;;;;
2021/02/04 01:13:17;;;;;;;0.3;0.3;;;;;;;;;;;;;
2021/02/04 01:15:47;;;;;;;0.4;0.4;;;;;;;;;;;;;
2021/02/04 01:18:15;;;;;;;0.2;0.2;;;;;;;;;;;;;
2021/02/04 01:20:40;;;;;;;1.5;0.4;;;;;;;;;;;;;
2021/02/04 01:23:07;;;;;;;0.2;0.2;;;;;;;;;;;;;
2021/02/04 01:25:32;;;;;;;0.7;0.2;;;;;;;;;;;;;
2021/02/04 01:27:57;;;;;;;0.6;0.4;;;;;;;;;;;;;
2021/02/04 01:30:23;;;;;;;0.3;0.3;;;;;;;;;;;;;
2021/02/04 01:32:49;;;;;;;0.8;0.4;;;;;;;;;;;;;
2021/02/04 01:35:14;;;;;;;0.1;0.1;;;;;;;;;;;;;
2021/02/04 01:37:42;;;;;;;0.4;0.4;;;;;;;;;;;;;
2021/02/04 01:40:07;;;;;;;1.3;0.4;;;;;;;;;;;;;
2021/02/04 01:42:32;;;;;;;0.8;0.5;;;;;;;;;;;;;
2021/02/04 01:44:57;;;;;;;0.2;0.2;;;;;;;;;;;;;
2021/02/04 01:47:24;;;;;;;0.2;0.2;;;;;;;;;;;;;
2021/02/04 01:49:49;;;;;;;0.4;0.3;;;;;;;;;;;;;
2021/02/04 01:52:14;;;;;;;0.2;0.2;;;;;;;;;;;;;
2021/02/04 01:54:39;;;;;;;0.2;0.2;;;;;;;;;;;;;
2021/02/04 01:57:05;;;;;;;0.2;0.2;;;;;;;;;;;;;
2021/02/04 01:59:30;;;;;;;0.3;0.3;;;;;;;;;;;;;
2021/02/04 02:01:57;;;;;;;0.2;0.2;;;;;;;;;;;;;
2021/02/04 02:04:22;;;;;;;0.4;0.4;;;;;;;;;;;;;
2021/02/04 02:06:47;;;;;;;0.9;0.3;;;;;;;;;;;;;
2021/02/04 02:09:12;;;;;;;0.4;0.3;;;;;;;;;;;;;
2021/02/04 02:11:41;;;;;;;0.5;0.4;;;;;;;;;;;;;
2021/02/04 02:14:06;;;;;;;0.5;0.4;;;;;;;;;;;;;
2021/02/04 02:16:40;;;;;;;0.4;0.3;;;;;;;;;;;;;
2021/02/04 02:19:13;;;;;;;2.3;0.6;;;;;;;;;;;;;
2021/02/04 02:21:40;;;;;;;0.2;0.2;;;;;;;;;;;;;
2021/02/04 02:24:05;;;;;;;0.4;0.3;;;;;;;;;;;;;
2021/02/04 02:26:32;;;;;;;0.3;0.3;;;;;;;;;;;;;
2021/02/04 02:28:56;;;;;;;0.1;0.1;;;;;;;;;;;;;
2021/02/04 02:31:21;;;;;;;0.4;0.4;;;;;;;;;;;;;
2021/02/04 02:33:46;;;;;;;0.2;0.2;;;;;;;;;;;;;
2021/02/04 02:36:14;;;;;;;0.6;0.4;;;;;;;;;;;;;
2021/02/04 02:38:40;;;;;;;0.2;0.2;;;;;;;;;;;;;
2021/02/04 02:41:08;;;;;;;0.6;0.4;;;;;;;;;;;;;
2021/02/04 02:43:35;;;;;;;0.4;0.4;;;;;;;;;;;;;
2021/02/04 02:46:00;;;;;;;0.3;0.3;;;;;;;;;;;;;
2021/02/04 02:48:26;;;;;;;0.2;0.2;;;;;;;;;;;;;
2021/02/04 02:50:51;;;;;;;0.4;0.3;;;;;;;;;;;;;
2021/02/04 02:53:18;;;;;;;0.2;0.2;;;;;;;;;;;;;
2021/02/04 02:55:43;;;;;;;0.2;0.2;;;;;;;;;;;;;
2021/02/04 02:58:09;;;;;;;0.2;0.2;;;;;;;;;;;;;
2021/02/04 03:00:34;;;;;;;1.4;0.2;;;;;;;;;;;;;
2021/02/04 03:03:01;;;;;;;0.2;0.2;;;;;;;;;;;;;
2021/02/04 03:05:26;;;;;;;0.3;0.3;;;;;;;;;;;;;
2021/02/04 03:07:51;;;;;;;0.4;0.4;;;;;;;;;;;;;
2021/02/04 03:10:16;;;;;;;0.5;0.3;;;;;;;;;;;;;
2021/02/04 03:12:43;;;;;;;0.3;0.3;;;;;;;;;;;;;
2021/02/04 03:15:08;;;;;;;0.3;0.3;;;;;;;;;;;;;
2021/02/04 03:17:34;;;;;;;0.5;0.4;;;;;;;;;;;;;
2021/02/04 03:20:00;;;;;;;0.4;0.3;;;;;;;;;;;;;
2021/02/04 03:22:25;;;;;;;0.2;0.2;;;;;;;;;;;;;
2021/02/04 03:24:50;;;;;;;0.4;0.3;;;;;;;;;;;;;
2021/02/04 03:27:17;;;;;;;0.4;0.3;;;;;;;;;;;;;
2021/02/04 03:29:42;;;;;;;0.5;0.2;;;;;;;;;;;;;
2021/02/04 03:32:08;;;;;;;0.7;0.3;;;;;;;;;;;;;
2021/02/04 03:34:33;;;;;;;0.2;0.2;;;;;;;;;;;;;
2021/02/04 03:36:58;;;;;;;0.3;0.3;;;;;;;;;;;;;
2021/02/04 03:39:23;;;;;;;0.4;0.3;;;;;;;;;;;;;
2021/02/04 03:41:49;;;;;;;0.3;0.3;;;;;;;;;;;;;
2021/02/04 03:44:15;;;;;;;0.2;0.2;;;;;;;;;;;;;
2021/02/04 03:46:40;;;;;;;0.2;0.2;;;;;;;;;;;;;
2021/02/04 03:49:06;;;;;;;0.7;0.4;;;;;;;;;;;;;
2021/02/04 03:51:32;;;;;;;0.3;0.3;;;;;;;;;;;;;
2021/02/04 03:53:57;;;;;;;0.5;0.5;;;;;;;;;;;;;
2021/02/04 03:56:23;;;;;;;0.5;0.5;;;;;;;;;;;;;
2021/02/04 03:58:48;;;;;;;0.9;0.5;;;;;;;;;;;;;
2021/02/04 04:02:33;;;;;;;0.8;0.5;;;;;;;4.87;91.14746;933.7243;;;;
2021/02/04 04:04:58;;;;;;;2.3;0.4;;;;;;;4.88;90.72168;933.767;;;;
2021/02/04 04:07:25;;;;;;;0.4;0.3;;;;;;;4.77;91.24805;933.8872;;;;
2021/02/04 04:09:50;;;;;;;3.2;0.5;;;;;;;4.81;91.12305;933.9523;;;;
2021/02/04 04:12:25;;;;;;;0.5;0.4;;;;;;;4.83;90.86719;933.9222;;;;
2021/02/04 04:14:53;;;;;;;0.7;0.7;;;;;;;4.85;90.64746;934.033;;;;
2021/02/04 04:17:24;;;;;;;2.7;0.5;;;;;;;4.87;90.62891;933.9853;;;;
2021/02/04 04:19:55;;;;;;;0.5;0.4;;;;;;;4.89;90.46387;933.9149;;;;
2021/02/04 04:22:20;;;;;;;0.9;0.5;;;;;;;4.89;90.64648;934.068;;;;
2021/02/04 04:24:51;;;;;;;0.7;0.7;;;;;;;4.74;91.58008;934.1838;;;;
2021/02/04 04:27:21;;;;;;;0.6;0.5;;;;;;;4.52;92.52441;934.1647;;;;
2021/02/04 04:29:51;;;;;;;0.4;0.4;;;;;;;4.55;93.22852;934.2379;;;;
2021/02/04 04:32:16;;;;;;;1;0.5;;;;;;;4.76;92.50781;934.29;;;;
2021/02/04 04:34:47;;;;;;;0.6;0.4;;;;;;;4.84;91.89453;934.338;;;;
2021/02/04 04:37:12;;;;;;;0.6;0.5;;;;;;;4.85;91.26758;934.3209;;;;
2021/02/04 04:39:43;;;;;;;0.4;0.4;;;;;;;4.87;91.03516;934.2324;;;;
2021/02/04 04:42:07;;;;;;;0.4;0.4;;;;;;;4.7;91.49414;934.3762;;;;
2021/02/04 04:44:38;;;;;;;0.7;0.4;;;;;;;4.8;91.13184;934.3831;;;;
2021/02/04 04:47:04;;;;;;;0.6;0.4;;;;;;;4.84;90.71387;934.4146;;;;
2021/02/04 04:49:34;;;;;;;0.3;0.2;;;;;;;4.91;90.32129;934.4114;;;;
2021/02/04 04:51:59;;;;;;;0.6;0.5;;;;;;;4.89;89.96973;934.4561;;;;
2021/02/04 04:54:30;;;;;;;1.3;0.4;;;;;;;4.8;90.27539;934.5048;;;;
2021/02/04 04:56:58;;;;;;;0.7;0.7;;;;;;;4.73;90.38672;934.5994;;;;
2021/02/04 04:59:23;;;;;;;0.5;0.5;;;;;;;4.71;90.4707;934.5506;;;;
2021/02/04 05:01:49;;;;;;;2.2;0.8;;;;;;;4.71;90.24512;934.5111;;;;
2021/02/04 05:04:16;;;;;;;1.3;0.8;;;;;;;4.6;89.90723;934.6052;;;;
2021/02/04 05:06:41;;;;;;;1.1;0.9;;;;;;;4.65;89.48926;934.7131;;;;
2021/02/04 05:09:10;;;;;;;1;0.6;;;;;;;4.7;89.4668;934.6552;;;;
2021/02/04 05:11:39;;;;;;;1.3;0.8;;;;;;;4.65;90.09668;934.7351;;;;
2021/02/04 05:14:16;;;;;;;0.9;0.6;;;;;;;4.62;90.49707;934.7258;;;;
2021/02/04 05:16:53;;;;;;;0.7;0.5;;;;;;;4.55;90.78516;934.7497;;;;
2021/02/04 05:19:19;;;;;;;1.5;0.9;;;;;;;4.33;91.8418;934.6711;;;;
2021/02/04 05:21:44;;;;;;;1.6;0.8;;;;;;;4.43;91.80957;934.6828;;;;
2021/02/04 05:24:15;;;;;;;0.4;0.4;;;;;;;4.36;91.58887;934.8656;;;;
2021/02/04 05:26:42;;;;;;;2;1.1;;;;;;;4.24;91.98047;934.6783;;;;
2021/02/04 05:29:14;;;;;;;4.9;1.4;;;;;;;4.35;91.91504;934.6741;;;;
2021/02/04 05:31:43;;;;;;;1.9;1.1;;;;;;;4.19;92.19531;934.79;;;;
2021/02/04 05:34:09;;;;;;;8.4;1.7;;;;;;;4.21;92.2334;934.8223;;;;
2021/02/04 05:37:18;;;;;;;2.1;1.3;;;;;;;4.22;91.99707;934.7933;;;;
2021/02/04 05:40:29;;;;;;;1.5;1;;;;;;;4.21;91.54688;934.7286;;;;
2021/02/04 05:43:38;;;;;;;2.9;1.3;;;;;;;4.06;91.48047;934.8566;;;;
2021/02/04 05:46:48;;;;;;;1.9;1.2;;;;;;;4.02;90.9082;934.8717;;;;
2021/02/04 05:49:59;;;;;;;3.6;1.9;;;;;;;4.1;90.5;934.8206;;;;
2021/02/04 05:53:09;;;;;;;2.6;1.7;;;;;;;4.13;89.96582;934.8427;;;;
2021/02/04 05:55:35;;;;;;;4.4;1.4;;;;;;;4.14;89.92285;934.8343;;;;
2021/02/04 05:58:00;;;;;;;2.9;1.7;;;;;;;4.03;90.54102;934.9973;;;;
2021/02/04 06:00:28;;;;;;;1.9;1.3;;;;;;;4.04;90.55371;934.9669;;;;
2021/02/04 06:02:53;;;;;;;4.3;2.2;;;;;;;3.85;91.36621;935.0028;;;;
2021/02/04 06:05:21;;;;;;;2.7;1.8;;;;;;;3.88;91.28418;934.9778;;;;
2021/02/04 06:07:49;;;;;;;2.3;1.6;;;;;;;3.95;90.67188;934.9327;;;;
2021/02/04 06:10:17;;;;;;;6.2;3.1;;;;;;;3.83;91.11719;935.0316;;;;
2021/02/04 06:12:42;;;;;;;7.1;3.3;;;;;;;3.9;90.73828;934.8973;;;;
2021/02/04 06:15:07;;;;;;;3.7;2.2;;;;;;;3.79;91.25293;935.1041;;;;
2021/02/04 06:17:40;;;;;;;9.1;2.7;;;;;;;3.8;90.97461;935.113;;;;
2021/02/04 06:20:05;;;;;;;4.2;2;;;;;;;3.63;91.36426;935.0545;;;;
2021/02/04 06:22:30;;;;;;;3.4;1.5;;;;;;;3.67;91.35156;935.155;;;;
2021/02/04 06:24:55;;;;;;;4.6;1.6;;;;;;;3.71;91.16797;935.2473;;;;
2021/02/04 06:27:25;;;;;;;3.6;1.7;;;;;;;3.66;90.66211;935.2167;;;;
2021/02/04 06:29:50;;;;;;;2.8;1.9;;;;;;;3.57;90.87012;935.231;;;;
2021/02/04 06:32:15;;;;;;;3;2.1;;;;;;;3.53;91.36523;935.259;;;;
2021/02/04 06:34:47;;;;;;;3.8;2;;;;;;;3.6;91.29297;935.2953;;;;
2021/02/04 06:37:19;;;;;;;5.8;1.9;;;;;;;3.53;91.33203;935.3156;;;;
2021/02/04 06:39:44;;;;;;;2;1.6;;;;;;;3.52;91.01563;935.3963;;;;
2021/02/04 06:42:09;;;;;;;2.8;1.8;;;;;;;3.48;90.33398;935.4322;;;;
2021/02/04 06:44:39;;;;;;;4.9;3;;;;;;;3.44;90.4834;935.3861;;;;
2021/02/04 06:47:10;;;;;;;6.2;2.6;;;;;;;3.41;90.7207;935.4889;;;;
2021/02/04 06:49:41;;;;;;;1.4;1.2;;;;;;;3.19;90.5752;935.5303;;;;
2021/02/04 06:52:11;;;;;;;1.1;1;;;;;;;3.3;89.65527;935.6176;;;;
2021/02/04 06:54:42;;;;;;;1.6;1.1;;;;;;;3.11;90.1543;935.6345;;;;
2021/02/04 06:57:13;;;;;;;3.8;1.6;;;;;;;3.26;90.08398;935.6593;;;;
2021/02/04 06:59:40;;;;;;;2.7;1.6;;;;;;;3.18;90.49512;935.6614;;;;
2021/02/04 07:02:05;;;;;;;2;1.6;;;;;;;3.18;91.24707;935.8289;;;;
2021/02/04 07:04:30;;;;;;;1.2;0.9;;;;;;;3.09;91.59766;935.8762;;;;
2021/02/04 07:06:56;;;;;;;2.5;0.9;;;;;;;3.1;91.16016;935.8497;;;;
2021/02/04 07:09:21;;;;;;;0.9;0.8;;;;;;;3.17;90.68359;935.8513;;;;
2021/02/04 07:11:51;;;;;;;5.2;2;;;;;;;3.27;89.72656;935.9114;;;;
2021/02/04 07:14:22;;;;;;;1.7;1.4;;;;;;;3.27;89.42578;936.0397;;;;
2021/02/04 07:16:52;;;;;;;1.8;1.1;;;;;;;3.12;90.09961;936.0502;;;;
2021/02/04 07:19:17;;;;;;;1.4;1;;;;;;;3.19;92.32617;936.1155;;;;
2021/02/04 07:21:47;;;;;;;1.8;1.2;;;;;;;3.83;96.82715;936.1357;;;;
2021/02/04 07:24:17;;;;;;;2.5;1.3;;;;;;;4.25;93.81641;936.1544;;;;
2021/02/04 07:26:42;;;;;;;1.9;1.3;;;;;;;4.64;90.82715;936.0951;;;;
2021/02/04 07:29:09;;;;;;;3.4;1.3;;;;;;;5.18;88.38281;936.1733;;;;
2021/02/04 07:31:41;;;;;;;2;1.2;;;;;;;5.45;85.14355;936.1484;;;;
2021/02/04 07:34:06;;;;;;;1.8;1.1;;;;;;;5.58;83.41016;936.1588;;;;
2021/02/04 07:36:33;;;;;;;1.8;1.1;;;;;;;5.78;82.35156;936.1795;;;;
2021/02/04 07:38:58;;;;;;;4.2;1.5;;;;;;;5.97;81.54297;936.2551;;;;
2021/02/04 07:41:25;;;;;;;5;1.8;;;;;;;5.88;81.07227;936.3315;;;;
2021/02/04 07:43:50;;;;;;;2.9;1.7;;;;;;;5.63;82.40527;936.3389;;;;
2021/02/04 07:46:17;;;;;;;2.4;1.2;;;;;;;5.97;82.49219;936.3767;;;;
2021/02/04 07:48:42;;;;;;;2.3;1.5;;;;;;;6.5;80.29688;936.3506;;;;
2021/02/04 07:51:08;;;;;;;1.3;1.1;;;;;;;7.04;77.46484;936.4076;;;;
2021/02/04 07:53:33;;;;;;;3.2;1.2;;;;;;;7.18;76.70801;936.3912;;;;
2021/02/04 07:55:59;;;;;;;1.7;1.2;;;;;;;7.3;75.95996;936.3528;;;;
2021/02/04 07:58:24;;;;;;;2.3;1.2;;;;;;;7.35;76.55664;936.4858;;;;
2021/02/04 08:00:52;;;;;;;2.8;1.6;;;;;;;8.35;73.41895;936.5344;;;;
2021/02/04 08:03:17;;;;;;;8.7;3.1;;;;;;;8.95;69.93848;936.4918;;;;
2021/02/04 08:05:44;;;;;;;6.7;2.7;;;;;;;8.92;69.34277;936.5653;;;;
2021/02/04 08:08:09;;;;;;;5;2.5;;;;;;;8.99;68.51074;936.6114;;;;
2021/02/04 08:10:37;;;;;;;4.1;2.1;;;;;;;9.42;67.91797;936.5983;;;;
2021/02/04 08:13:08;;;;;;;10.3;1.8;;;;;;;10.18;65.27637;936.6158;;;;
2021/02/04 08:15:40;;;;;;;5;1.7;;;;;;;10.83;61.95996;936.5628;;;;
2021/02/04 08:18:05;;;;;;;2.8;1.4;;;;;;;10.6;61.59668;936.6333;;;;
2021/02/04 08:20:33;;;;;;;2.5;1.5;;;;;;;10.74;61.02148;936.6536;;;;
2021/02/04 08:22:59;;;;;;;1.9;1.1;;;;;;;10.85;61.23145;936.5995;;;;
2021/02/04 08:25:27;;;;;;;1.1;1;;;;;;;11.48;58.79199;936.584;;;;
2021/02/04 08:27:56;;;;;;;1.3;1;;;;;;;11.95;57.38965;936.6281;;;;
2021/02/04 08:30:21;;;;;;;1.3;1.1;;;;;;;13.13;54.12305;936.6833;;;;
2021/02/04 08:32:51;;;;;;;2.2;1.4;;;;;;;13.01;54.85352;936.704;;;;
2021/02/04 08:35:22;;;;;;;3.1;1.2;;;;;;;13.92;51.73535;936.734;;;;
2021/02/04 08:37:53;;;;;;;0.9;0.7;;;;;;;14.44;49.40137;936.6378;;;;
2021/02/04 08:40:19;;;;;;;1.6;1.1;;;;;;;15.23;48.63574;936.5906;;;;
2021/02/04 08:42:50;;;;;;;1.5;1;;;;;;;16.42;44.16211;936.6358;;;;
2021/02/04 08:45:17;;;;;;;1.2;1.1;;;;;;;16.8;43.52832;936.6987;;;;
2021/02/04 08:47:43;;;;;;;1.4;0.8;;;;;;;17.54;42.1748;936.7603;;;;
2021/02/04 08:50:08;;;;;;;1.5;0.7;;;;;;;18.17;40.38867;936.721;;;;
2021/02/04 08:52:36;;;;;;;0.5;0.4;;;;;;;17.67;40.66699;936.7404;;;;
2021/02/04 08:55:01;;;;;;;0.7;0.6;;;;;;;17.31;41.15527;936.7517;;;;
2021/02/04 08:57:31;;;;;;;0.7;0.6;;;;;;;16.44;43.53906;936.7363;;;;
2021/02/04 08:59:59;;;;;;;1.3;0.6;;;;;;;16.22;44.79004;936.7377;;;;
2021/02/04 09:02:24;;;;;;;0.8;0.6;;;;;;;15.78;44.76758;936.7444;;;;
2021/02/04 09:04:50;;;;;;;1.5;1;;;;;;;15.76;45.8291;936.7712;;;;
2021/02/04 09:07:18;;;;;;;1.8;0.8;;;;;;;15.59;46.37695;936.7988;;;;
2021/02/04 09:09:45;;;;;;;1.4;1.1;;;;;;;14.76;48.54883;936.8895;;;;
2021/02/04 09:12:10;;;;;;;0.7;0.5;;;;;;;13.87;50.94629;936.9233;;;;
2021/02/04 09:14:41;;;;;;;4.9;1.5;;;;;;;12.96;52.68848;936.9944;;;;
2021/02/04 09:17:19;;;;;;;1.1;0.8;;;;;;;11.48;56.66211;937.0433;;;;
2021/02/04 09:19:46;;;;;;;1.2;0.7;;;;;;;10.59;59.96094;936.9755;;;;
2021/02/04 09:22:14;;;;;;;1;0.9;;;;;;;9.81;62.99902;937.1682;;;;
2021/02/04 09:24:46;;;;;;;1.1;0.8;;;;;;;9.36;65.37012;937.179;;;;
2021/02/04 09:27:16;;;;;;;1.4;0.8;;;;;;;8.98;66.51855;937.1577;;;;
2021/02/04 09:29:44;;;;;;;0.8;0.8;;;;;;;8.52;67.5498;937.1505;;;;
2021/02/04 09:32:09;;;;;;;1;0.9;;;;;;;8.27;69.91797;937.1976;;;;
2021/02/04 09:34:35;;;;;;;4.3;0.8;;;;;;;8.29;70.36426;937.1019;;;;
2021/02/04 09:37:00;;;;;;;3;1.2;;;;;;;8.33;70.8125;937.1628;;;;
2021/02/04 09:39:27;;;;;;;0.9;0.8;;;;;;;8.25;71.78906;937.1417;;;;
2021/02/04 09:41:52;;;;;;;1.3;0.8;;;;;;;8.06;73.49414;937.2153;;;;
2021/02/04 09:44:21;;;;;;;3.1;1.2;;;;;;;8.06;74.66406;937.2842;;;;
2021/02/04 09:46:53;;;;;;;3.8;1.2;;;;;;;8.15;74.55469;937.2755;;;;
2021/02/04 09:49:21;;;;;;;2.2;1.1;;;;;;;7.88;73.66895;937.2872;;;;
2021/02/04 09:51:46;;;;;;;3.8;0.7;;;;;;;8.05;74.79785;937.2467;;;;
2021/02/04 09:54:11;;;;;;;4.5;0.6;;;;;;;8.11;73.45801;937.2676;;;;
2021/02/04 09:56:40;;;;;;;0.3;0.3;;;;;;;8.27;72.45117;937.2753;;;;
2021/02/04 09:59:05;;;;;;;0.6;0.6;;;;;;;8.41;72.13477;937.2834;;;;
2021/02/04 10:01:34;;;;;;;1.9;0.9;;;;;;;8.5;70.5;937.2914;;;;
2021/02/04 10:03:59;;;;;;;0.5;0.4;;;;;;;8.79;70.90137;937.2921;;;;
2021/02/04 10:06:28;;;;;;;1.2;0.7;;;;;;;8.99;68.5791;937.242;;;;
2021/02/04 10:08:53;;;;;;;0.2;0.2;;;;;;;9.22;67.4541;937.298;;;;
2021/02/04 10:11:25;;;;;;;0.5;0.5;;;;;;;9.69;66.52637;937.2835;;;;
2021/02/04 10:13:58;;;;;;;0.4;0.4;;;;;;;10.19;65.59863;937.1506;;;;
2021/02/04 10:16:29;;;;;;;2.2;0.6;;;;;;;10.34;64.90137;937.2631;;;;
2021/02/04 10:19:01;;;;;;;0.8;0.6;;;;;;;10.98;61.46777;937.2544;;;;
2021/02/04 10:21:31;;;;;;;0.4;0.4;;;;;;;11.12;60.22949;937.1853;;;;
2021/02/04 10:23:56;;;;;;;0.6;0.6;;;;;;;11.02;60.35254;937.1393;;;;
2021/02/04 10:26:21;;;;;;;0.3;0.2;;;;;;;10.89;60.67676;937.1613;;;;
2021/02/04 10:28:47;;;;;;;0.4;0.3;;;;;;;10.7;61.0625;937.1423;;;;
2021/02/04 10:31:13;;;;;;;0.8;0.5;;;;;;;10.84;61.5957;937.1563;;;;
2021/02/04 10:33:40;;;;;;;0.8;0.4;;;;;;;11.15;60.62207;937.1233;;;;
2021/02/04 10:36:07;;;;;;;1;0.6;;;;;;;11.75;58.97754;937.0795;;;;
2021/02/04 10:38:39;;;;;;;0.6;0.4;;;;;;;12.14;55.90137;936.9919;;;;
2021/02/04 10:41:04;;;;;;;3;0.5;;;;;;;12.37;55.35742;937.1425;;;;
2021/02/04 10:43:31;;;;;;;2.1;0.6;;;;;;;12.45;55.19727;937.1204;;;;
2021/02/04 10:46:07;;;;;;;3.1;0.8;;;;;;;12.13;56.4043;937.0533;;;;
2021/02/04 10:48:35;;;;;;;6.1;0.5;;;;;;;11.78;57.79004;937.0724;;;;
2021/02/04 10:51:02;;;;;;;0.8;0.5;;;;;;;11.27;59.93066;937.1353;;;;
2021/02/04 10:53:28;;;;;;;1.1;0.3;;;;;;;11.08;59.20703;937.0966;;;;
2021/02/04 10:55:54;;;;;;;1.6;0.8;;;;;;;10.93;59.92871;937.0533;;;;
2021/02/04 10:58:20;;;;;;;0.9;0.5;;;;;;;10.85;60.61426;937.1005;;;;
2021/02/04 11:00:46;;;;;;;1.1;0.7;;;;;;;10.82;60.85059;937.0789;;;;
2021/02/04 11:03:11;;;;;;;0.8;0.4;;;;;;;10.45;61.73438;937.1091;;;;
2021/02/04 11:05:36;;;;;;;0.5;0.3;;;;;;;10.42;62.00488;937.0516;;;;
2021/02/04 11:08:01;;;;;;;0.4;0.3;;;;;;;10.62;61.58594;937.0812;;;;
2021/02/04 11:10:32;;;;;;;0.4;0.4;;;;;;;10.58;62.2334;937.1165;;;;
2021/02/04 11:13:00;;;;;;;1.2;0.7;;;;;;;10.62;61.98633;937.0804;;;;
2021/02/04 11:15:41;;;;;;;0.2;0.2;;;;;;;10.86;61.18652;936.9708;;;;
2021/02/04 11:18:22;;;;;;;0.2;0.1;;;;;;;10.98;60.71191;936.9387;;;;
2021/02/04 11:20:51;;;;;;;0.4;0.4;;;;;;;11.4;59.30762;936.8705;;;;
2021/02/04 11:23:16;;;;;;;0.4;0.4;;;;;;;11.6;58.72754;936.8706;;;;
2021/02/04 11:25:41;;;;;;;0.6;0.3;;;;;;;11.94;58.47559;936.8811;;;;
2021/02/04 11:28:07;;;;;;;0.3;0.3;;;;;;;12.07;57.30078;936.8521;;;;
2021/02/04 11:30:32;;;;;;;1.6;0.6;;;;;;;12.19;57.50098;936.9249;;;;
2021/02/04 11:32:57;;;;;;;3.3;0.8;;;;;;;12.45;55.82813;936.9032;;;;
2021/02/04 11:35:30;;;;;;;0.4;0.2;;;;;;;12.5;55.5127;936.872;;;;
2021/02/04 11:37:54;;;;;;;0.2;0.2;;;;;;;12.87;54.68652;936.8347;;;;
2021/02/04 11:40:24;;;;;;;0.3;0.3;;;;;;;12.9;53.48535;936.7834;;;;
2021/02/04 11:42:49;;;;;;;0.8;0.4;;;;;;;12.81;54.27734;936.8097;;;;
2021/02/04 11:45:19;;;;;;;0.8;0.5;;;;;;;12.88;54.22949;936.7739;;;;
2021/02/04 11:47:51;;;;;;;1.3;0.1;;;;;;;12.89;53.90918;936.6916;;;;
2021/02/04 11:50:25;;;;;;;1.2;0.3;;;;;;;12.96;53.72266;936.6667;;;;
2021/02/04 11:52:55;;;;;;;0.1;0.1;;;;;;;13.31;52.85742;936.5714;;;;
2021/02/04 11:55:23;;;;;;;0.7;0.5;;;;;;;13.64;52.11621;936.516;;;;
2021/02/04 11:57:48;;;;;;;1.5;0.4;;;;;;;14.13;50.83887;936.5641;;;;
2021/02/04 12:00:13;;;;;;;0.3;0.3;;;;;;;14.23;50.14746;936.5869;;;;
2021/02/04 12:02:39;;;;;;;0.7;0.6;;;;;;;14.21;50.80176;936.5491;;;;
2021/02/04 12:05:09;;;;;;;0.8;0.2;;;;;;;14.83;48.85742;936.4842;;;;
2021/02/04 12:07:38;;;;;;;0.9;0.4;;;;;;;15.14;47.71387;936.4622;;;;
2021/02/04 12:10:04;;;;;;;0.6;0.3;;;;;;;15.31;47.54883;936.4372;;;;
2021/02/04 12:12:32;;;;;;;1.1;0.6;;;;;;;15.09;48.25098;936.4202;;;;
2021/02/04 12:14:57;;;;;;;0.6;0.3;;;;;;;14.84;48.73145;936.4578;;;;
2021/02/04 12:17:26;;;;;;;0.4;0.2;;;;;;;14.83;48.79785;936.3761;;;;
2021/02/04 12:19:51;;;;;;;4.6;0.6;;;;;;;14.75;48.44434;936.2491;;;;
2021/02/04 12:22:19;;;;;;;0.4;0.4;;;;;;;14.7;48.8418;936.3555;;;;
2021/02/04 12:24:45;;;;;;;0.4;0.4;;;;;;;14.62;48.92578;936.2913;;;;
2021/02/04 12:27:10;;;;;;;0.2;0.2;;;;;;;14.61;50.17969;936.3823;;;;
2021/02/04 12:29:36;;;;;;;4.4;0.5;;;;;;;14.68;49.11719;936.2682;;;;
2021/02/04 12:32:00;;;;;;;1.2;0.6;;;;;;;14.82;48.98242;936.2647;;;;
2021/02/04 12:34:27;;;;;;;1.2;0.5;;;;;;;14.9;48.84082;936.1317;;;;
2021/02/04 12:36:52;;;;;;;0.4;0.3;;;;;;;14.95;48.5918;936.1047;;;;
2021/02/04 12:39:17;;;;;;;1.3;0.3;;;;;;;14.8;48.89844;936.1011;;;;
2021/02/04 12:41:42;;;;;;;0.3;0.3;;;;;;;14.65;50.75;936.1019;;;;
2021/02/04 12:44:09;;;;;;;1.8;0.3;;;;;;;14.48;51.29492;936.1024;;;;
2021/02/04 12:46:34;;;;;;;0.3;0.3;;;;;;;14.44;51.31348;935.9897;;;;
2021/02/04 12:48:59;;;;;;;0.3;0.2;;;;;;;14.53;50.75977;936.029;;;;
2021/02/04 12:51:27;;;;;;;0.3;0.3;;;;;;;14.75;50.06934;935.9534;;;;
2021/02/04 12:53:56;;;;;;;0.9;0.6;;;;;;;14.84;51.06055;935.895;;;;
2021/02/04 12:56:21;;;;;;;1.6;0.6;;;;;;;15.08;49.66992;935.8582;;;;
2021/02/04 12:58:48;;;;;;;0.2;0.2;;;;;;;15.23;49.44336;935.8397;;;;
2021/02/04 13:01:13;;;;;;;0.9;0.7;;;;;;;15.54;49.84863;935.8095;;;;
2021/02/04 13:03:40;;;;;;;1;0.6;;;;;;;16.44;46.88379;935.8336;;;;
2021/02/04 13:06:05;;;;;;;0.4;0.3;;;;;;;18.43;41.29492;935.7352;;;;
2021/02/04 13:08:34;;;;;;;0.6;0.4;;;;;;;20.54;39.90527;935.8276;;;;
2021/02/04 13:11:03;;;;;;;1.2;0.6;;;;;;;21.99;35.06641;935.7629;;;;
2021/02/04 13:13:34;;;;;;;7.3;0.3;;;;;;;21.51;33.89258;935.7834;;;;
2021/02/04 13:16:05;;;;;;;0.4;0.2;;;;;;;20.64;35.20508;935.7849;;;;
2021/02/04 13:18:36;;;;;;;0.8;0.5;;;;;;;19.82;37.00586;935.6669;;;;
2021/02/04 13:21:07;;;;;;;0.9;0.5;;;;;;;19.44;36.34473;935.6937;;;;
2021/02/04 13:23:37;;;;;;;0.4;0.3;;;;;;;18.58;38.34375;935.6984;;;;
2021/02/04 13:26:09;;;;;;;1.1;0.5;;;;;;;17.8;39.78516;935.6425;;;;
2021/02/04 13:28:42;;;;;;;1;0.2;;;;;;;17.37;40.68555;935.6092;;;;
2021/02/04 13:31:12;;;;;;;1.5;0.6;;;;;;;16.91;42.25391;935.6258;;;;
2021/02/04 13:33:41;;;;;;;2.7;0.7;;;;;;;16.43;45.71387;935.6731;;;;
2021/02/04 13:36:06;;;;;;;6.2;0.7;;;;;;;15.88;45.49512;935.6794;;;;
2021/02/04 13:38:37;;;;;;;2.1;0.6;;;;;;;15.83;48.66895;935.6586;;;;
2021/02/04 13:41:10;;;;;;;1.8;0.6;;;;;;;16.66;46.57129;935.6316;;;;
2021/02/04 13:43:40;;;;;;;1.3;0.8;;;;;;;16.74;46.77734;935.7036;;;;
2021/02/04 13:46:04;;;;;;;1.7;0.8;;;;;;;16.14;49.13086;935.6501;;;;
2021/02/04 13:48:34;;;;;;;4;1.5;;;;;;;15.01;49.34961;935.6284;;;;
2021/02/04 13:51:06;;;;;;;7.3;1.2;;;;;;;14.32;51.26465;935.7388;;;;
2021/02/04 13:53:35;;;;;;;1.2;0.6;;;;;;;13.6;52.93848;935.7662;;;;
2021/02/04 13:56:02;;;;;;;5.2;1.6;;;;;;;13;55.46191;935.7825;;;;
2021/02/04 13:58:27;;;;;;;0.7;0.5;;;;;;;12.55;56.02246;935.7538;;;;
2021/02/04 14:00:53;;;;;;;2.2;0.9;;;;;;;12.32;58.26367;935.7723;;;;
2021/02/04 14:03:18;;;;;;;0.7;0.4;;;;;;;12.16;58.57422;935.848;;;;
2021/02/04 14:05:46;;;;;;;0.9;0.5;;;;;;;11.91;60.22363;935.8239;;;;
2021/02/04 14:08:11;;;;;;;0.6;0.4;;;;;;;11.75;59.95117;935.8223;;;;
2021/02/04 14:10:42;;;;;;;0.7;0.4;;;;;;;11.53;60.22949;935.8329;;;;
2021/02/04 14:13:12;;;;;;;0.5;0.4;;;;;;;11.54;61.64844;935.7988;;;;
2021/02/04 14:15:38;;;;;;;1;0.6;;;;;;;11.54;60.49316;935.7692;;;;
2021/02/04 14:18:08;;;;;;;1.5;0.6;;;;;;;11.39;61.66113;935.8563;;;;
2021/02/04 14:20:39;;;;;;;10;0.8;;;;;;;11.31;61.75391;935.8569;;;;
2021/02/04 14:23:09;;;;;;;1.4;0.9;;;;;;;11.41;61.64258;935.775;;;;
2021/02/04 14:25:43;;;;;;;0.9;0.7;;;;;;;11.48;61.25098;935.7261;;;;
2021/02/04 14:28:18;;;;;;;4.3;0.9;;;;;;;11.37;62.15234;935.7231;;;;
2021/02/04 14:30:53;;;;;;;3.2;0.9;;;;;;;11.24;62.44141;935.7396;;;;
2021/02/04 14:33:20;;;;;;;3.2;1.2;;;;;;;11.06;63.7998;935.7444;;;;
2021/02/04 14:35:56;;;;;;;4.9;2;;;;;;;10.86;64.2373;935.6788;;;;
2021/02/04 14:38:24;;;;;;;5.5;1.5;;;;;;;10.92;65.45801;935.7205;;;;
2021/02/04 14:40:57;;;;;;;10.5;2.7;;;;;;;10.88;65.54395;935.7537;;;;
2021/02/04 14:43:23;;;;;;;4.8;1.5;;;;;;;10.88;65.75;935.6901;;;;
2021/02/04 14:45:48;;;;;;;3;1.3;;;;;;;11.04;65.56738;935.7291;;;;
2021/02/04 14:48:19;;;;;;;1.1;1;;;;;;;11.16;65.49414;935.7901;;;;
2021/02/04 14:50:50;;;;;;;2.9;1.9;;;;;;;11.18;65.30371;935.7949;;;;
2021/02/04 14:53:15;;;;;;;3.7;2;;;;;;;11.09;65.02734;935.8329;;;;
2021/02/04 14:55:41;;;;;;;4.3;1.8;;;;;;;11.06;64.70313;935.7827;;;;
2021/02/04 14:58:06;;;;;;;4.9;1.7;;;;;;;11.04;65.5791;935.8168;;;;
2021/02/04 15:00:35;;;;;;;1.1;0.7;;;;;;;10.89;68.18359;935.7522;;;;
2021/02/04 15:03:00;;;;;;;2.8;1.1;;;;;;;10.92;66.49707;935.7946;;;;
2021/02/04 15:05:28;;;;;;;3.2;1.5;;;;;;;10.92;66.9668;935.7595;;;;
2021/02/04 15:07:53;;;;;;;1.8;1.1;;;;;;;10.73;66.30762;935.7831;;;;
2021/02/04 15:10:22;;;;;;;3.6;1.3;;;;;;;10.83;67.86523;935.7783;;;;
2021/02/04 15:12:53;;;;;;;2.7;1.3;;;;;;;10.94;66.91211;935.7659;;;;
2021/02/04 15:15:30;;;;;;;2.3;1.4;;;;;;;10.96;68.5498;935.8066;;;;
2021/02/04 15:17:55;;;;;;;2.1;1.3;;;;;;;10.8;70.19238;935.9052;;;;
2021/02/04 15:20:27;;;;;;;2.2;1.2;;;;;;;10.67;69.79492;935.9333;;;;
2021/02/04 15:22:56;;;;;;;3.7;1.1;;;;;;;10.6;70.35352;935.9255;;;;
2021/02/04 15:25:22;;;;;;;1.2;1;;;;;;;10.5;70.54492;935.8063;;;;
2021/02/04 15:27:51;;;;;;;3.6;1.7;;;;;;;10.22;69.86035;935.8561;;;;
2021/02/04 15:30:23;;;;;;;3.3;1.4;;;;;;;10.16;70.21484;935.8988;;;;
2021/02/04 15:32:55;;;;;;;1.9;1.6;;;;;;;10.24;70.48926;935.9055;;;;
2021/02/04 15:35:30;;;;;;;3.9;2.5;;;;;;;10.24;70.04395;935.8506;;;;
2021/02/04 15:37:57;;;;;;;6;2.9;;;;;;;10.12;69.93359;935.8691;;;;
2021/02/04 15:40:33;;;;;;;5.9;3;;;;;;;9.81;70.53223;935.793;;;;
2021/02/04 15:43:04;;;;;;;2.8;1.6;;;;;;;9.67;71.19336;935.8228;;;;
2021/02/04 15:45:32;;;;;;;4.5;2.1;;;;;;;9.59;71.97949;935.8353;;;;
2021/02/04 15:47:58;;;;;;;6.6;3.2;;;;;;;9.65;72.10254;935.8521;;;;
2021/02/04 15:50:25;;;;;;;4.6;2.6;;;;;;;9.78;71.8291;935.7983;;;;